createdAt,value
2017-11-22T00:00:10.121Z,98.10
2017-11-22T00:02:38.376Z,98.10
2017-11-22T00:05:06.632Z,97.90
2017-11-22T00:07:34.884Z,98.00
2017-11-22T00:10:03.145Z,97.90
2017-11-22T00:12:31.416Z,98.00
2017-11-22T00:14:59.676Z,98.00
2017-11-22T00:17:27.970Z,97.90
2017-11-22T00:19:56.231Z,97.90
2017-11-22T00:22:24.472Z,97.90
2017-11-22T00:24:52.813Z,97.90
2017-11-22T00:27:21.074Z,97.80
2017-11-22T00:29:49.344Z,97.70
2017-11-22T00:32:17.601Z,97.60
2017-11-22T00:34:45.878Z,97.60
2017-11-22T00:37:15.663Z,97.60
2017-11-22T00:39:43.926Z,97.60
2017-11-22T00:42:12.185Z,97.70
2017-11-22T00:44:41.205Z,97.90
2017-11-22T00:47:09.453Z,97.80
2017-11-22T00:49:38.481Z,97.90
2017-11-22T00:52:06.749Z,97.90
2017-11-22T00:54:35.312Z,98.10
2017-11-22T00:57:03.985Z,98.10
2017-11-22T00:59:32.311Z,98.10
2017-11-22T01:02:00.569Z,98.10
2017-11-22T01:04:29.618Z,98.20
2017-11-22T01:06:57.867Z,98.20
2017-11-22T01:09:26.131Z,98.10
2017-11-22T01:11:55.209Z,98.30
2017-11-22T01:14:23.459Z,98.30
2017-11-22T01:16:51.709Z,98.10
2017-11-22T01:19:19.975Z,98.20
2017-11-22T01:21:48.984Z,98.10
2017-11-22T01:24:18.039Z,98.20
2017-11-22T01:26:46.296Z,98.10
2017-11-22T01:29:14.568Z,98.10
2017-11-22T01:31:42.819Z,98.00
2017-11-22T01:34:11.858Z,98.00
2017-11-22T01:36:40.115Z,98.00
2017-11-22T01:39:08.384Z,98.20
2017-11-22T01:41:36.674Z,98.10
2017-11-22T01:44:04.946Z,97.90
2017-11-22T01:46:33.208Z,97.90
2017-11-22T01:49:01.481Z,97.80
2017-11-22T01:51:30.509Z,98.10
2017-11-22T01:53:58.830Z,97.80
2017-11-22T01:56:27.135Z,97.60
2017-11-22T01:58:55.373Z,97.60
2017-11-22T02:01:23.632Z,97.60
2017-11-22T02:03:52.637Z,97.50
2017-11-22T02:06:20.924Z,97.50
2017-11-22T02:08:49.186Z,97.60
2017-11-22T02:11:18.229Z,97.50
2017-11-22T02:13:46.480Z,97.50
2017-11-22T02:16:14.749Z,97.60
2017-11-22T02:18:43.769Z,97.50
2017-11-22T02:21:12.028Z,97.50
2017-11-22T02:23:41.076Z,97.60
2017-11-22T02:26:09.453Z,97.60
2017-11-22T02:28:37.699Z,97.60
2017-11-22T02:31:06.014Z,97.60
2017-11-22T02:33:34.263Z,97.70
2017-11-22T02:36:02.570Z,97.70
2017-11-22T02:38:30.810Z,97.70
2017-11-22T02:40:59.844Z,97.80
2017-11-22T02:43:28.096Z,97.80
2017-11-22T02:45:56.372Z,97.90
2017-11-22T02:48:24.619Z,97.90
2017-11-22T02:50:54.386Z,98.00
2017-11-22T02:53:22.637Z,97.90
2017-11-22T02:55:51.656Z,97.90
2017-11-22T02:58:19.904Z,97.90
2017-11-22T03:00:48.236Z,97.90
2017-11-22T03:03:16.533Z,97.80
2017-11-22T03:05:44.801Z,97.90
2017-11-22T03:08:13.044Z,98.10
2017-11-22T03:10:42.082Z,98.20
2017-11-22T03:13:10.324Z,98.20
2017-11-22T03:15:39.373Z,98.20
2017-11-22T03:18:07.629Z,98.20
2017-11-22T03:20:35.947Z,98.20
2017-11-22T03:23:04.187Z,98.20
2017-11-22T03:25:33.309Z,98.20
2017-11-22T03:28:01.570Z,98.30
2017-11-22T03:30:29.830Z,98.20
2017-11-22T03:32:58.868Z,98.20
2017-11-22T03:35:27.128Z,98.20
2017-11-22T03:37:55.433Z,98.60
2017-11-22T03:40:23.693Z,98.50
2017-11-22T03:42:52.724Z,98.40
2017-11-22T03:45:21.004Z,98.40
2017-11-22T03:47:49.238Z,98.40
2017-11-22T03:50:24.004Z,98.40
2017-11-22T03:52:58.101Z,98.40
2017-11-22T03:55:27.120Z,98.40
2017-11-22T03:57:59.323Z,98.40
2017-11-22T04:00:30.443Z,98.40
2017-11-22T04:03:04.426Z,98.60
2017-11-22T04:05:33.560Z,98.60
2017-11-22T04:08:07.886Z,98.60
2017-11-22T04:10:39.156Z,98.70
2017-11-22T04:13:07.389Z,98.70
2017-11-22T04:15:35.701Z,98.80
2017-11-22T04:18:03.939Z,98.90
2017-11-22T04:20:38.787Z,99.00
2017-11-22T04:23:07.046Z,99.30
2017-11-22T04:25:35.294Z,99.00
2017-11-22T04:28:03.559Z,98.90
2017-11-22T04:30:31.826Z,98.90
2017-11-22T04:33:00.134Z,98.90
2017-11-22T04:35:28.413Z,98.80
2017-11-22T04:37:56.929Z,98.80
2017-11-22T04:40:26.733Z,98.90
2017-11-22T04:42:54.985Z,98.80
2017-11-22T04:45:23.240Z,98.80
2017-11-22T04:47:52.249Z,98.60
2017-11-22T04:50:20.515Z,98.60
2017-11-22T04:52:49.525Z,98.60
2017-11-22T04:55:17.789Z,98.60
2017-11-22T04:57:46.129Z,98.50
2017-11-22T05:00:14.389Z,99.00
2017-11-22T05:02:42.639Z,98.80
2017-11-22T05:05:11.674Z,98.80
2017-11-22T05:07:39.926Z,98.80
2017-11-22T05:10:08.948Z,98.70
2017-11-22T05:12:37.197Z,98.70
2017-11-22T05:15:06.229Z,98.50
2017-11-22T05:17:34.475Z,98.50
2017-11-22T05:20:03.517Z,98.30
2017-11-22T05:22:31.788Z,98.20
2017-11-22T05:25:00.037Z,98.40
2017-11-22T05:27:29.065Z,98.50
2017-11-22T05:29:57.325Z,98.50
2017-11-22T05:32:26.380Z,98.30
2017-11-22T05:34:54.621Z,98.30
2017-11-22T05:37:24.240Z,98.40
2017-11-22T05:39:52.480Z,98.40
2017-11-22T05:42:20.756Z,98.30
2017-11-22T05:44:49.005Z,98.30
2017-11-22T05:47:17.280Z,98.30
2017-11-22T05:49:45.530Z,98.30
2017-11-22T05:52:14.573Z,98.40
2017-11-22T05:54:42.857Z,98.40
2017-11-22T05:57:11.116Z,98.40
2017-11-22T05:59:39.363Z,98.30
2017-11-22T06:02:08.453Z,98.50
2017-11-22T06:04:36.706Z,98.50
2017-11-22T06:07:05.069Z,98.40
2017-11-22T06:09:33.329Z,98.50
2017-11-22T06:12:01.611Z,98.50
2017-11-22T06:14:29.863Z,98.40
2017-11-22T06:16:58.895Z,98.40
2017-11-22T06:19:27.160Z,98.40
2017-11-22T06:21:56.296Z,98.60
2017-11-22T06:24:24.569Z,98.60
2017-11-22T06:26:52.828Z,98.50
2017-11-22T06:29:21.076Z,98.40
2017-11-22T06:31:49.356Z,98.10
2017-11-22T06:34:19.140Z,98.20
2017-11-22T06:36:47.518Z,98.10
2017-11-22T06:39:16.052Z,98.10
2017-11-22T06:41:44.306Z,98.00
2017-11-22T06:44:12.588Z,97.90
2017-11-22T06:46:40.835Z,97.90
2017-11-22T06:49:09.123Z,98.00
2017-11-22T06:51:37.371Z,97.90
2017-11-22T06:54:06.413Z,97.80
2017-11-22T06:56:34.668Z,97.80
2017-11-22T06:59:02.978Z,97.80
2017-11-22T07:01:31.243Z,97.80
2017-11-22T07:03:59.503Z,97.80
2017-11-22T07:06:28.879Z,97.90
2017-11-22T07:08:57.198Z,97.90
2017-11-22T07:11:25.475Z,97.70
2017-11-22T07:13:53.735Z,97.60
2017-11-22T07:16:26.725Z,97.70
2017-11-22T07:18:54.988Z,97.70
2017-11-22T07:21:23.244Z,97.50
2017-11-22T07:23:51.536Z,97.60
2017-11-22T07:26:19.784Z,97.50
2017-11-22T07:28:48.083Z,97.70
2017-11-22T07:31:16.374Z,97.50
2017-11-22T07:33:44.655Z,97.50
2017-11-22T07:36:18.542Z,97.40
2017-11-22T07:38:46.853Z,97.40
2017-11-22T07:41:15.119Z,97.40
2017-11-22T07:43:43.385Z,97.40
2017-11-22T07:46:11.703Z,97.50
2017-11-22T07:48:39.953Z,97.30
2017-11-22T07:51:13.937Z,97.10
2017-11-22T07:53:42.975Z,96.90
2017-11-22T07:56:11.251Z,96.90
2017-11-22T07:58:39.522Z,96.90
2017-11-22T08:01:07.879Z,96.90
2017-11-22T08:03:36.127Z,96.90
2017-11-22T08:06:04.395Z,96.80
2017-11-22T08:08:32.645Z,96.00
2017-11-22T08:11:00.956Z,95.80
2017-11-22T08:13:29.238Z,95.30
2017-11-22T08:15:57.515Z,95.10
2017-11-22T08:18:26.139Z,94.90
2017-11-22T08:20:55.243Z,94.60
2017-11-22T08:23:23.509Z,94.50
2017-11-22T08:25:54.648Z,94.50
2017-11-22T08:28:22.908Z,94.60
2017-11-22T08:30:51.216Z,94.40
2017-11-22T08:33:19.482Z,93.90
2017-11-22T08:35:47.925Z,93.40
2017-11-22T08:38:16.171Z,93.00
2017-11-22T08:40:44.448Z,93.00
2017-11-22T08:43:18.457Z,92.50
2017-11-22T08:45:46.827Z,92.10
2017-11-22T08:48:15.083Z,91.20
2017-11-22T08:50:43.350Z,90.20
2017-11-22T08:53:13.038Z,88.90
2017-11-22T08:55:48.192Z,88.90
2017-11-22T08:58:17.510Z,88.50
2017-11-22T09:00:45.791Z,87.70
2017-11-22T09:03:14.844Z,84.60
2017-11-22T09:05:48.420Z,81.90
2017-11-22T09:08:16.691Z,81.80
2017-11-22T09:10:44.963Z,80.80
2017-11-22T09:13:30.920Z,79.50
2017-11-22T09:15:59.187Z,79.40
2017-11-22T09:18:31.471Z,78.80
2017-11-22T09:20:59.766Z,77.50
2017-11-22T09:23:28.026Z,78.00
2017-11-22T09:25:56.740Z,77.00
2017-11-22T09:28:25.092Z,75.80
2017-11-22T09:30:54.288Z,76.20
2017-11-22T09:33:25.536Z,76.90
2017-11-22T09:35:53.790Z,78.70
2017-11-22T09:38:22.825Z,81.50
2017-11-22T09:40:51.080Z,81.50
2017-11-22T09:43:19.358Z,82.60
2017-11-22T09:45:47.616Z,83.50
2017-11-22T09:48:16.650Z,86.50
2017-11-22T09:50:45.687Z,86.60
2017-11-22T09:53:13.970Z,87.00
2017-11-22T09:55:42.240Z,88.30
2017-11-22T09:58:10.555Z,89.10
2017-11-22T10:00:39.658Z,90.00
2017-11-22T10:03:08.691Z,90.40
2017-11-22T10:05:36.979Z,90.40
2017-11-22T10:08:05.345Z,90.80
2017-11-22T10:10:33.649Z,91.10
2017-11-22T10:13:01.920Z,91.30
2017-11-22T10:15:30.242Z,91.30
2017-11-22T10:18:04.183Z,91.50
2017-11-22T10:20:33.220Z,91.30
2017-11-22T10:23:01.490Z,91.30
2017-11-22T10:25:29.748Z,91.50
2017-11-22T10:28:04.550Z,92.00
2017-11-22T10:30:32.817Z,92.00
2017-11-22T10:33:06.727Z,92.00
2017-11-22T10:35:35.016Z,91.70
2017-11-22T10:38:03.276Z,91.80
2017-11-22T10:40:31.530Z,91.70
2017-11-22T10:42:59.844Z,91.90
2017-11-22T10:45:28.124Z,91.40
2017-11-22T10:47:56.701Z,91.20
2017-11-22T10:50:24.952Z,91.40
2017-11-22T10:52:53.613Z,91.50
2017-11-22T10:55:22.401Z,91.50
2017-11-22T10:57:50.756Z,91.40
2017-11-22T11:00:19.018Z,91.80
2017-11-22T11:02:47.332Z,91.80
2017-11-22T11:05:15.596Z,92.00
2017-11-22T11:07:43.971Z,92.00
2017-11-22T11:10:12.232Z,92.20
2017-11-22T11:12:40.503Z,92.20
2017-11-22T11:15:08.777Z,91.90
2017-11-22T11:17:37.813Z,92.00
2017-11-22T11:20:06.083Z,92.00
2017-11-22T11:22:34.355Z,92.00
2017-11-22T11:25:02.631Z,92.10
2017-11-22T11:27:32.675Z,92.30
2017-11-22T11:30:00.979Z,92.30
2017-11-22T11:32:29.287Z,92.00
2017-11-22T11:34:57.653Z,92.00
2017-11-22T11:37:26.158Z,91.90
2017-11-22T11:39:54.421Z,91.90
2017-11-22T11:42:22.682Z,91.70
2017-11-22T11:44:50.964Z,91.80
2017-11-22T11:47:19.219Z,91.90
2017-11-22T11:49:47.516Z,91.90
2017-11-22T11:52:15.826Z,91.70
2017-11-22T11:54:44.149Z,91.20
2017-11-22T11:57:13.171Z,91.30
2017-11-22T11:59:41.477Z,91.30
2017-11-22T12:02:09.751Z,90.90
2017-11-22T12:04:38.032Z,90.70
2017-11-22T12:07:06.305Z,90.70
2017-11-22T12:09:34.584Z,90.80
2017-11-22T12:12:17.442Z,90.70
2017-11-22T12:14:45.716Z,90.60
2017-11-22T12:17:14.128Z,90.30
2017-11-22T12:19:43.172Z,90.10
2017-11-22T12:22:13.246Z,90.10
2017-11-22T12:24:41.527Z,90.00
2017-11-22T12:27:09.781Z,90.20
2017-11-22T12:29:38.040Z,90.00
2017-11-22T12:32:06.309Z,87.70
2017-11-22T12:34:34.582Z,86.00
2017-11-22T12:37:02.827Z,86.50
2017-11-22T12:39:31.095Z,86.30
2017-11-22T12:41:59.350Z,85.80
2017-11-22T12:44:27.611Z,84.60
2017-11-22T12:46:55.893Z,84.60
2017-11-22T12:49:24.180Z,84.90
2017-11-22T12:51:52.439Z,85.20
2017-11-22T12:54:21.555Z,83.70
2017-11-22T12:56:49.856Z,83.60
2017-11-22T12:59:18.115Z,83.10
2017-11-22T13:01:46.411Z,82.70
2017-11-22T13:04:14.679Z,83.20
2017-11-22T13:06:42.929Z,83.50
2017-11-22T13:09:11.958Z,83.60
2017-11-22T13:11:42.124Z,83.60
2017-11-22T13:14:10.405Z,84.30
2017-11-22T13:16:38.684Z,82.90
2017-11-22T13:19:06.956Z,83.00
2017-11-22T13:21:35.216Z,83.10
2017-11-22T13:24:03.478Z,83.00
2017-11-22T13:26:32.567Z,82.20
2017-11-22T13:29:01.616Z,82.30
2017-11-22T13:31:29.879Z,82.20
2017-11-22T13:33:58.156Z,82.80
2017-11-22T13:36:26.412Z,82.70
2017-11-22T13:38:55.432Z,83.10
2017-11-22T13:41:31.328Z,83.10
2017-11-22T13:43:59.608Z,83.30
2017-11-22T13:46:27.891Z,83.70
2017-11-22T13:48:56.164Z,83.40
2017-11-22T13:51:24.428Z,83.70
2017-11-22T13:53:52.711Z,84.00
2017-11-22T13:56:21.012Z,84.20
2017-11-22T13:58:49.280Z,84.60
2017-11-22T14:01:17.530Z,84.90
2017-11-22T14:03:46.561Z,85.80
2017-11-22T14:06:15.091Z,85.80
2017-11-22T14:08:43.443Z,85.90
2017-11-22T14:11:12.138Z,86.10
2017-11-22T14:13:40.390Z,86.90
2017-11-22T14:16:08.669Z,86.50
2017-11-22T14:18:37.679Z,87.20
2017-11-22T14:21:05.979Z,87.20
2017-11-22T14:23:35.471Z,87.10
2017-11-22T14:26:03.743Z,86.90
2017-11-22T14:28:32.526Z,87.20
2017-11-22T14:31:02.531Z,87.40
2017-11-22T14:33:32.987Z,87.40
2017-11-22T14:36:02.012Z,87.80
2017-11-22T14:38:30.293Z,87.70
2017-11-22T14:40:58.564Z,88.20
2017-11-22T14:43:26.846Z,88.60
2017-11-22T14:45:55.107Z,88.70
2017-11-22T14:48:23.384Z,89.00
2017-11-22T14:50:51.665Z,89.20
2017-11-22T14:53:19.929Z,89.20
2017-11-22T14:55:49.023Z,89.60
2017-11-22T14:58:18.043Z,89.60
2017-11-22T15:00:47.112Z,90.00
2017-11-22T15:03:15.347Z,90.00
2017-11-22T15:05:43.628Z,90.10
2017-11-22T15:08:11.872Z,90.10
2017-11-22T15:10:40.975Z,90.30
2017-11-22T15:13:10.017Z,90.20
2017-11-22T15:15:38.320Z,90.20
2017-11-22T15:18:06.603Z,90.30
2017-11-22T15:20:34.912Z,90.60
2017-11-22T15:23:03.184Z,91.10
2017-11-22T15:25:31.490Z,90.80
2017-11-22T15:27:59.736Z,90.80
2017-11-22T15:30:28.248Z,90.80
2017-11-22T15:32:57.315Z,90.80
2017-11-22T15:35:25.840Z,90.70
2017-11-22T15:37:54.880Z,90.90
2017-11-22T15:40:23.164Z,90.90
2017-11-22T15:42:51.540Z,90.90
2017-11-22T15:45:19.810Z,91.10
2017-11-22T15:47:48.439Z,91.30
2017-11-22T15:50:17.029Z,91.50
2017-11-22T15:52:45.446Z,91.60
2017-11-22T15:55:14.050Z,91.70
2017-11-22T15:57:42.597Z,91.80
2017-11-22T16:00:10.956Z,92.40
2017-11-22T16:02:39.732Z,91.90
2017-11-22T16:05:09.348Z,91.90
2017-11-22T16:07:37.844Z,91.90
2017-11-22T16:10:06.226Z,92.00
2017-11-22T16:12:34.699Z,92.10
2017-11-22T16:15:03.377Z,92.30
2017-11-22T16:17:31.857Z,92.50
2017-11-22T16:20:00.486Z,92.60
2017-11-22T16:22:29.322Z,92.70
2017-11-22T16:24:58.016Z,92.80
2017-11-22T16:27:27.505Z,92.90
2017-11-22T16:29:55.894Z,92.90
2017-11-22T16:32:24.336Z,93.00
2017-11-22T16:34:52.731Z,93.30
2017-11-22T16:37:21.060Z,93.00
2017-11-22T16:39:49.685Z,93.00
2017-11-22T16:42:18.623Z,93.10
2017-11-22T16:44:47.077Z,92.90
2017-11-22T16:47:15.591Z,93.00
2017-11-22T16:49:59.814Z,93.00
2017-11-22T16:52:35.809Z,93.00
2017-11-22T16:55:09.532Z,93.20
2017-11-22T16:57:50.435Z,93.20
2017-11-22T17:00:21.418Z,93.20
2017-11-22T17:03:00.860Z,93.30
2017-11-22T17:05:55.288Z,93.30
2017-11-22T17:08:35.066Z,93.30
2017-11-22T17:11:08.338Z,93.40
2017-11-22T17:13:48.272Z,93.20
2017-11-22T17:16:30.960Z,93.40
2017-11-22T17:19:07.208Z,93.40
2017-11-22T17:21:49.294Z,93.40
2017-11-22T17:24:31.048Z,93.50
2017-11-22T17:27:03.984Z,93.60
2017-11-22T17:29:36.048Z,93.60
2017-11-22T17:32:14.395Z,93.60
2017-11-22T17:34:48.457Z,93.70
2017-11-22T17:37:25.904Z,93.70
2017-11-22T17:40:02.584Z,93.70
2017-11-22T17:42:50.878Z,93.80
2017-11-22T17:45:35.214Z,93.80
2017-11-22T17:48:07.884Z,93.80
2017-11-22T17:50:51.623Z,94.00
2017-11-22T17:53:27.285Z,94.20
2017-11-22T17:55:59.762Z,94.20
2017-11-22T17:58:34.936Z,94.30
2017-11-22T18:01:05.169Z,94.30
2017-11-22T18:03:38.081Z,94.50
2017-11-22T18:06:12.008Z,94.50
2017-11-22T18:08:46.399Z,94.40
2017-11-22T18:11:25.352Z,95.10
2017-11-22T18:13:59.676Z,95.30
2017-11-22T18:16:33.276Z,95.20
2017-11-22T18:19:02.925Z,95.50
2017-11-22T18:21:38.954Z,95.40
2017-11-22T18:24:16.430Z,95.40
2017-11-22T18:26:50.131Z,95.50
2017-11-22T18:29:26.572Z,95.40
2017-11-22T18:32:08.015Z,95.60
2017-11-22T18:34:53.154Z,95.60
2017-11-22T18:37:30.233Z,95.50
2017-11-22T18:40:01.684Z,95.50
2017-11-22T18:42:43.631Z,95.50
2017-11-22T18:45:20.221Z,95.60
2017-11-22T18:47:54.167Z,95.60
2017-11-22T18:50:29.828Z,95.60
2017-11-22T18:56:06.100Z,95.40
2017-11-22T18:58:40.558Z,95.50
2017-11-22T19:01:10.716Z,95.60
2017-11-22T19:03:45.468Z,95.50
2017-11-22T19:06:19.679Z,95.70
2017-11-22T19:08:48.150Z,95.50
2017-11-22T19:11:16.412Z,95.60
2017-11-22T19:13:45.455Z,95.60
2017-11-22T19:16:13.744Z,95.60
2017-11-22T19:18:41.987Z,95.70
2017-11-22T19:21:10.312Z,95.70
2017-11-22T19:23:38.565Z,95.70
2017-11-22T19:26:06.828Z,95.70
2017-11-22T19:28:35.076Z,95.80
2017-11-22T19:31:03.334Z,96.10
2017-11-22T19:33:31.589Z,96.40
2017-11-22T19:35:59.918Z,96.50
2017-11-22T19:38:28.167Z,96.50
2017-11-22T19:40:56.425Z,96.40
2017-11-22T19:43:24.685Z,96.20
2017-11-22T19:45:53.689Z,96.10
2017-11-22T19:48:21.948Z,96.10
2017-11-22T19:50:50.209Z,96.00
2017-11-22T19:53:18.466Z,95.90
2017-11-22T19:55:46.716Z,95.70
2017-11-22T19:58:15.748Z,95.80
2017-11-22T20:00:43.999Z,95.80
2017-11-22T20:03:12.268Z,95.80
2017-11-22T20:05:40.583Z,95.80
2017-11-22T20:08:21.255Z,95.80
2017-11-22T20:10:50.699Z,95.90
2017-11-22T20:13:18.979Z,95.80
2017-11-22T20:15:47.228Z,95.80
2017-11-22T20:18:15.520Z,95.80
2017-11-22T20:20:43.767Z,95.80
2017-11-22T20:23:12.106Z,95.90
2017-11-22T20:25:40.366Z,95.90
2017-11-22T20:28:08.660Z,95.90
2017-11-22T20:30:36.921Z,95.90
2017-11-22T20:33:05.195Z,95.90
2017-11-22T20:35:33.570Z,96.00
2017-11-22T20:38:01.823Z,96.00
2017-11-22T20:40:30.078Z,95.90
2017-11-22T20:42:58.322Z,95.70
2017-11-22T20:45:26.595Z,95.50
2017-11-22T20:47:54.916Z,95.40
2017-11-22T20:50:23.158Z,95.60
2017-11-22T20:52:51.401Z,95.40
2017-11-22T20:55:20.434Z,95.50
2017-11-22T20:57:48.682Z,95.50
2017-11-22T21:00:17.711Z,95.80
2017-11-22T21:02:45.963Z,95.80
2017-11-22T21:05:14.984Z,96.00
2017-11-22T21:07:43.289Z,96.00
2017-11-22T21:10:11.549Z,96.00
2017-11-22T21:12:39.816Z,96.10
2017-11-22T21:15:09.037Z,96.10
2017-11-22T21:17:37.337Z,96.30
2017-11-22T21:20:05.589Z,96.30
2017-11-22T21:22:33.852Z,96.30
2017-11-22T21:25:02.096Z,96.60
2017-11-22T21:27:30.362Z,96.60
2017-11-22T21:29:58.604Z,96.70
2017-11-22T21:32:26.942Z,96.80
2017-11-22T21:34:55.163Z,96.90
2017-11-22T21:37:23.479Z,96.50
2017-11-22T21:39:51.733Z,96.30
2017-11-22T21:42:20.000Z,96.30
2017-11-22T21:44:48.252Z,96.20
2017-11-22T21:47:16.586Z,96.20
2017-11-22T21:49:44.853Z,96.20
2017-11-22T21:52:13.140Z,96.20
2017-11-22T21:54:41.781Z,96.30
2017-11-22T21:57:10.574Z,96.40
2017-11-22T21:59:39.473Z,96.50
2017-11-22T22:02:07.821Z,96.70
2017-11-22T22:04:36.106Z,96.80
2017-11-22T22:07:04.390Z,96.80
2017-11-22T22:09:32.675Z,96.70
2017-11-22T22:12:00.947Z,96.40
2017-11-22T22:14:33.993Z,96.60
2017-11-22T22:17:09.438Z,97.30
2017-11-22T22:19:38.876Z,97.40
2017-11-22T22:22:07.169Z,97.40
2017-11-22T22:24:35.436Z,97.20
2017-11-22T22:27:04.465Z,96.40
2017-11-22T22:29:32.844Z,96.40
2017-11-22T22:32:01.120Z,96.00
2017-11-22T22:34:29.455Z,96.30
2017-11-22T22:36:57.821Z,96.40
2017-11-22T22:39:26.092Z,96.10
2017-11-22T22:41:54.442Z,96.10
2017-11-22T22:44:22.758Z,96.20
2017-11-22T22:46:51.031Z,96.70
2017-11-22T22:49:19.277Z,97.10
2017-11-22T22:51:47.580Z,97.30
2017-11-22T22:54:15.873Z,97.50
2017-11-22T22:56:44.142Z,97.50
2017-11-22T22:59:12.391Z,97.60
2017-11-22T23:01:41.407Z,97.60
2017-11-22T23:04:09.660Z,97.70
2017-11-22T23:06:38.712Z,97.60
2017-11-22T23:09:06.948Z,97.60
2017-11-22T23:11:35.254Z,97.70
2017-11-22T23:14:03.506Z,97.50
2017-11-22T23:16:31.775Z,96.90
2017-11-22T23:19:00.790Z,97.10
2017-11-22T23:21:29.051Z,97.10
2017-11-22T23:23:58.068Z,97.20
2017-11-22T23:26:26.383Z,97.10
2017-11-22T23:28:54.621Z,97.60
2017-11-22T23:31:22.945Z,98.20
2017-11-22T23:33:51.187Z,98.10
2017-11-22T23:36:19.443Z,97.40
2017-11-22T23:38:48.506Z,96.60
2017-11-22T23:41:16.737Z,96.30
2017-11-22T23:43:45.779Z,96.50
2017-11-22T23:46:14.025Z,96.50
2017-11-22T23:48:43.073Z,96.70
2017-11-22T23:51:11.348Z,96.70
2017-11-22T23:53:39.623Z,96.70
2017-11-22T23:56:07.917Z,96.80
2017-11-22T23:58:36.179Z,96.90
